createdAt,value
2023-05-25T00:01:44.829Z,26.97
2023-05-25T00:04:17.075Z,29.77
2023-05-25T00:06:45.487Z,30.17
2023-05-25T00:09:12.533Z,26.57
2023-05-25T00:11:39.590Z,31.03
2023-05-25T00:14:08.349Z,30.70
2023-05-25T00:16:37.736Z,30.07
2023-05-25T00:19:10.686Z,35.27
2023-05-25T00:21:41.479Z,30.53
2023-05-25T00:24:08.505Z,31.13
2023-05-25T00:26:35.584Z,32.77
2023-05-25T00:29:02.958Z,36.27
2023-05-25T00:31:33.578Z,36.23
2023-05-25T00:34:00.690Z,29.73
2023-05-25T00:36:27.596Z,38.63
2023-05-25T00:38:54.409Z,32.77
2023-05-25T00:41:21.240Z,37.63
2023-05-25T00:43:48.036Z,39.50
2023-05-25T00:46:15.039Z,40.53
2023-05-25T00:48:44.429Z,42.80
2023-05-25T00:51:11.482Z,37.73
2023-05-25T00:53:38.533Z,38.83
2023-05-25T00:56:15.991Z,39.70
2023-05-25T00:58:45.400Z,40.50
2023-05-25T01:01:12.446Z,40.83
2023-05-25T01:03:40.287Z,36.93
2023-05-25T01:06:13.254Z,35.73
2023-05-25T01:08:44.203Z,43.40
2023-05-25T01:11:11.783Z,41.27
2023-05-25T01:13:38.843Z,38.37
2023-05-25T01:16:09.609Z,46.90
2023-05-25T01:18:41.927Z,43.03
2023-05-25T01:21:24.049Z,48.67
2023-05-25T01:23:56.669Z,41.80
2023-05-25T01:26:26.573Z,51.77
2023-05-25T01:28:54.062Z,44.33
2023-05-25T01:31:24.073Z,50.77
2023-05-25T01:33:53.455Z,53.33
2023-05-25T01:36:21.004Z,49.40
2023-05-25T01:38:47.903Z,49.50
2023-05-25T01:41:15.057Z,52.70
2023-05-25T01:43:41.839Z,52.27
2023-05-25T01:46:17.982Z,50.63
2023-05-25T01:49:21.337Z,54.87
2023-05-25T01:51:52.812Z,57.37
2023-05-25T01:54:20.024Z,51.47
2023-05-25T01:56:48.278Z,47.80
2023-05-25T01:59:15.619Z,55.90
2023-05-25T02:01:42.971Z,54.83
2023-05-25T02:04:09.852Z,53.07
2023-05-25T02:06:37.228Z,53.47
2023-05-25T02:09:04.534Z,53.77
2023-05-25T02:11:31.325Z,49.93
2023-05-25T02:13:58.130Z,52.07
2023-05-25T02:16:25.036Z,48.80
2023-05-25T02:18:51.963Z,46.70
2023-05-25T02:21:18.761Z,43.90
2023-05-25T02:23:49.355Z,46.73
2023-05-25T02:26:16.821Z,48.57
2023-05-25T02:28:45.987Z,44.00
2023-05-25T02:31:12.870Z,44.60
2023-05-25T02:33:41.968Z,47.97
2023-05-25T02:36:09.037Z,45.40
2023-05-25T02:38:35.831Z,46.30
2023-05-25T02:41:05.302Z,51.33
2023-05-25T02:43:32.708Z,42.80
2023-05-25T02:45:59.502Z,47.13
2023-05-25T02:48:26.323Z,44.53
2023-05-25T02:50:55.432Z,40.23
2023-05-25T02:53:22.466Z,46.07
2023-05-25T02:55:49.314Z,40.77
2023-05-25T02:58:16.674Z,43.60
2023-05-25T03:00:46.932Z,43.77
2023-05-25T03:03:13.911Z,44.67
2023-05-25T03:05:41.875Z,44.07
2023-05-25T03:08:08.697Z,42.90
2023-05-25T03:10:35.502Z,44.63
2023-05-25T03:13:02.295Z,40.33
2023-05-25T03:15:29.130Z,42.77
2023-05-25T03:18:01.145Z,40.30
2023-05-25T03:20:28.419Z,42.43
2023-05-25T03:22:55.652Z,41.20
2023-05-25T03:25:22.451Z,38.33
2023-05-25T03:27:52.977Z,38.43
2023-05-25T03:30:21.217Z,47.73
2023-05-25T03:32:48.104Z,46.93
2023-05-25T03:35:15.058Z,46.50
2023-05-25T03:37:41.883Z,43.87
2023-05-25T03:40:11.864Z,41.77
2023-05-25T03:42:38.813Z,46.50
2023-05-25T03:45:06.641Z,45.00
2023-05-25T03:47:33.619Z,49.83
2023-05-25T03:50:02.728Z,47.60
2023-05-25T03:52:29.638Z,49.90
2023-05-25T03:54:56.763Z,42.00
2023-05-25T03:57:23.599Z,49.73
2023-05-25T03:59:50.402Z,45.40
2023-05-25T04:02:22.316Z,47.17
2023-05-25T04:04:52.096Z,48.70
2023-05-25T04:07:19.933Z,43.83
2023-05-25T04:09:46.728Z,47.60
2023-05-25T04:12:15.788Z,45.67
2023-05-25T04:14:42.730Z,48.00
2023-05-25T04:17:09.806Z,47.93
2023-05-25T04:19:36.610Z,49.70
2023-05-25T04:22:03.514Z,47.10
2023-05-25T04:24:34.261Z,52.70
2023-05-25T04:27:06.114Z,47.30
2023-05-25T04:29:35.230Z,48.90
2023-05-25T04:32:02.905Z,44.77
2023-05-25T04:34:33.913Z,42.30
2023-05-25T04:37:05.462Z,42.03
2023-05-25T04:39:32.954Z,44.47
2023-05-25T04:42:04.391Z,45.90
2023-05-25T04:44:32.162Z,47.23
2023-05-25T04:47:02.525Z,46.80
2023-05-25T04:49:29.634Z,47.60
2023-05-25T04:51:56.504Z,44.67
2023-05-25T04:54:27.691Z,41.00
2023-05-25T04:56:57.381Z,47.80
2023-05-25T04:59:26.775Z,47.63
2023-05-25T05:01:53.655Z,46.77
2023-05-25T05:04:22.913Z,46.33
2023-05-25T05:06:52.220Z,51.60
2023-05-25T05:09:19.234Z,45.63
2023-05-25T05:11:46.135Z,46.20
2023-05-25T05:14:12.903Z,46.90
2023-05-25T05:16:39.720Z,45.93
2023-05-25T05:19:06.821Z,44.47
2023-05-25T05:21:33.643Z,42.97
2023-05-25T05:24:00.587Z,39.40
2023-05-25T05:26:27.844Z,45.77
2023-05-25T05:29:02.113Z,48.13
2023-05-25T05:31:31.828Z,43.80
2023-05-25T05:33:58.711Z,43.73
2023-05-25T05:36:25.789Z,40.87
2023-05-25T05:38:52.696Z,40.03
2023-05-25T05:41:19.529Z,37.47
2023-05-25T05:43:50.771Z,40.53
2023-05-25T05:46:17.843Z,34.33
2023-05-25T05:48:46.928Z,39.73
2023-05-25T05:51:13.799Z,38.03
2023-05-25T05:53:40.911Z,41.87
2023-05-25T05:56:17.445Z,45.13
2023-05-25T05:58:44.760Z,42.03
2023-05-25T06:01:11.543Z,47.43
2023-05-25T06:03:38.683Z,40.23
2023-05-25T06:06:08.261Z,40.07
2023-05-25T06:08:35.230Z,40.43
2023-05-25T06:11:04.158Z,42.20
2023-05-25T06:13:31.067Z,43.80
2023-05-25T06:15:57.909Z,38.90
2023-05-25T06:18:24.703Z,44.60
2023-05-25T06:20:51.559Z,41.80
2023-05-25T06:23:20.850Z,39.67
2023-05-25T06:25:47.969Z,40.60
2023-05-25T06:28:15.377Z,38.87
2023-05-25T06:30:42.172Z,35.27
2023-05-25T06:33:09.075Z,39.97
2023-05-25T06:35:35.964Z,40.07
2023-05-25T06:38:03.118Z,39.60
2023-05-25T06:40:29.949Z,42.13
2023-05-25T06:42:56.897Z,44.60
2023-05-25T06:45:23.787Z,41.37
2023-05-25T06:47:50.662Z,42.97
2023-05-25T06:50:18.222Z,39.93
2023-05-25T06:52:47.457Z,39.07
2023-05-25T06:55:14.263Z,37.33
2023-05-25T06:57:41.338Z,44.43
2023-05-25T07:00:12.177Z,44.93
2023-05-25T07:02:39.526Z,47.20
2023-05-25T07:05:06.759Z,43.40
2023-05-25T07:07:33.689Z,38.10
2023-05-25T07:10:01.505Z,41.80
2023-05-25T07:12:31.505Z,41.43
2023-05-25T07:14:58.543Z,35.23
2023-05-25T07:17:25.551Z,38.57
2023-05-25T07:19:52.690Z,37.33
2023-05-25T07:22:19.703Z,41.97
2023-05-25T07:24:46.972Z,41.80
2023-05-25T07:27:16.690Z,42.60
2023-05-25T07:29:43.546Z,42.27
2023-05-25T07:32:12.813Z,45.43
2023-05-25T07:34:39.660Z,41.80
2023-05-25T07:37:06.623Z,36.63
2023-05-25T07:39:33.425Z,43.57
2023-05-25T07:42:01.958Z,39.70
2023-05-25T07:44:31.390Z,38.70
2023-05-25T07:46:58.233Z,40.77
2023-05-25T07:49:25.127Z,45.70
2023-05-25T07:51:51.907Z,39.50
2023-05-25T07:54:18.716Z,37.70
2023-05-25T07:56:45.509Z,38.67
2023-05-25T07:59:12.363Z,36.07
2023-05-25T08:01:39.399Z,42.87
2023-05-25T08:04:06.400Z,35.97
2023-05-25T08:06:34.413Z,45.27
2023-05-25T08:09:03.062Z,37.00
2023-05-25T08:11:31.264Z,42.13
2023-05-25T08:13:58.084Z,38.20
2023-05-25T08:16:27.188Z,38.50
2023-05-25T08:18:54.074Z,36.37
2023-05-25T08:21:21.151Z,36.03
2023-05-25T08:23:48.091Z,33.83
2023-05-25T08:26:34.298Z,32.37
2023-05-25T08:29:04.701Z,37.67
2023-05-25T08:31:32.713Z,36.43
2023-05-25T08:34:00.627Z,36.47
2023-05-25T08:36:27.649Z,31.53
2023-05-25T08:38:57.133Z,31.63
2023-05-25T08:41:24.070Z,35.70
2023-05-25T08:43:51.040Z,38.33
2023-05-25T08:46:30.082Z,40.93
2023-05-25T08:49:02.908Z,35.83
2023-05-25T08:51:37.045Z,29.77
2023-05-25T08:54:12.579Z,33.77
2023-05-25T08:56:45.598Z,33.67
2023-05-25T08:59:43.700Z,33.83
2023-05-25T09:02:34.867Z,32.63
2023-05-25T09:05:02.208Z,29.50
2023-05-25T09:07:29.508Z,35.73
2023-05-25T09:09:56.498Z,34.33
2023-05-25T09:12:23.853Z,35.87
2023-05-25T09:14:51.203Z,34.00
2023-05-25T09:17:18.745Z,27.10
2023-05-25T09:19:46.508Z,36.73
2023-05-25T09:22:16.743Z,31.63
2023-05-25T09:24:45.573Z,30.47
2023-05-25T09:27:13.539Z,28.63
2023-05-25T09:29:46.439Z,28.80
2023-05-25T09:32:13.258Z,29.87
2023-05-25T09:34:40.098Z,31.17
2023-05-25T09:37:14.546Z,37.10
2023-05-25T09:39:44.501Z,31.80
2023-05-25T09:42:11.787Z,26.93
2023-05-25T09:44:39.816Z,26.87
2023-05-25T09:47:09.026Z,32.30
2023-05-25T09:49:36.420Z,29.80
2023-05-25T09:52:03.278Z,33.33
2023-05-25T09:54:30.098Z,33.60
2023-05-25T09:57:05.258Z,33.73
2023-05-25T09:59:32.243Z,34.53
2023-05-25T10:02:01.630Z,34.53
2023-05-25T10:04:28.556Z,31.93
2023-05-25T10:06:56.840Z,34.40
2023-05-25T10:09:23.663Z,32.47
2023-05-25T10:11:51.499Z,25.87
2023-05-25T10:14:22.884Z,31.67
2023-05-25T10:16:51.955Z,32.87
2023-05-25T10:19:34.634Z,35.67
2023-05-25T10:22:17.051Z,30.57
2023-05-25T10:24:57.941Z,33.50
2023-05-25T10:30:12.601Z,27.73
2023-05-25T10:32:39.532Z,35.77
2023-05-25T10:35:09.126Z,34.90
2023-05-25T10:37:38.191Z,31.00
2023-05-25T10:40:08.563Z,34.70
2023-05-25T10:42:37.180Z,32.90
2023-05-25T10:45:06.495Z,37.37
2023-05-25T10:47:34.854Z,36.73
2023-05-25T10:50:03.115Z,31.20
2023-05-25T10:52:33.206Z,38.57
2023-05-25T10:55:05.037Z,32.13
2023-05-25T10:57:32.246Z,27.63
2023-05-25T11:00:06.548Z,27.37
2023-05-25T11:02:55.943Z,25.73
2023-05-25T11:05:32.561Z,31.80
2023-05-25T11:08:05.105Z,27.20
2023-05-25T11:10:48.455Z,29.15
2023-05-25T11:13:39.758Z,27.83
2023-05-25T11:16:36.141Z,26.50
2023-05-25T11:19:03.351Z,27.95
2023-05-25T11:21:32.909Z,30.13
2023-05-25T11:24:04.356Z,24.65
2023-05-25T11:26:35.286Z,22.65
2023-05-25T11:29:14.931Z,26.40
2023-05-25T11:31:44.069Z,22.55
2023-05-25T11:34:11.951Z,27.55
2023-05-25T11:36:39.467Z,24.45
2023-05-25T11:39:17.046Z,21.42
2023-05-25T11:42:02.006Z,21.90
2023-05-25T11:44:33.784Z,22.50
2023-05-25T11:47:09.849Z,23.52
2023-05-25T11:49:49.864Z,27.42
2023-05-25T11:52:20.448Z,24.75
2023-05-25T11:54:47.455Z,17.90
2023-05-25T11:57:24.961Z,18.65
2023-05-25T12:00:01.210Z,13.55
2023-05-25T12:02:28.178Z,18.70
2023-05-25T12:04:59.702Z,21.30
2023-05-25T12:07:26.793Z,17.73
2023-05-25T12:10:07.929Z,20.25
2023-05-25T12:12:44.544Z,18.92
2023-05-25T12:15:15.140Z,18.45
2023-05-25T12:17:45.117Z,19.10
2023-05-25T12:20:15.547Z,18.55
2023-05-25T12:22:42.756Z,18.45
2023-05-25T12:25:13.212Z,17.38
2023-05-25T12:27:42.608Z,16.98
2023-05-25T12:30:10.556Z,16.83
2023-05-25T12:33:04.484Z,14.23
2023-05-25T12:35:45.420Z,18.67
2023-05-25T12:38:17.704Z,19.35
2023-05-25T12:40:45.148Z,18.52
2023-05-25T12:43:13.162Z,18.67
2023-05-25T12:45:41.940Z,16.00
2023-05-25T12:48:08.863Z,15.57
2023-05-25T12:50:38.044Z,19.50
2023-05-25T12:53:04.931Z,17.17
2023-05-25T12:55:33.170Z,19.67
2023-05-25T12:58:06.526Z,18.98
2023-05-25T13:00:37.859Z,18.00
2023-05-25T13:03:05.471Z,19.10
2023-05-25T13:05:35.534Z,15.30
2023-05-25T13:08:03.087Z,15.82
2023-05-25T13:10:32.897Z,13.30
2023-05-25T13:12:59.889Z,20.48
2023-05-25T13:15:27.081Z,17.15
2023-05-25T13:17:54.499Z,13.10
2023-05-25T13:20:22.724Z,17.50
2023-05-25T13:22:50.389Z,14.65
2023-05-25T13:25:17.294Z,17.58
2023-05-25T13:27:46.812Z,14.27
2023-05-25T13:30:13.869Z,13.88
2023-05-25T13:32:43.579Z,15.38
2023-05-25T13:35:18.659Z,12.40
2023-05-25T13:37:53.143Z,16.10
2023-05-25T13:40:22.462Z,14.77
2023-05-25T13:42:49.939Z,12.65
2023-05-25T13:45:16.749Z,13.35
2023-05-25T13:47:44.101Z,14.77
2023-05-25T13:50:11.695Z,14.77
2023-05-25T13:52:41.002Z,10.88
2023-05-25T13:55:08.201Z,13.68
2023-05-25T13:57:35.124Z,11.70
2023-05-25T14:00:04.278Z,17.38
2023-05-25T14:02:35.190Z,15.18
2023-05-25T14:05:02.185Z,15.35
2023-05-25T14:07:28.971Z,14.15
2023-05-25T14:10:00.284Z,11.30
2023-05-25T14:12:32.242Z,12.68
2023-05-25T14:14:59.073Z,20.60
2023-05-25T14:17:28.433Z,12.38
2023-05-25T14:19:55.521Z,14.40
2023-05-25T14:22:22.353Z,12.02
2023-05-25T14:24:49.108Z,11.38
2023-05-25T14:27:21.092Z,11.50
2023-05-25T14:29:52.315Z,16.55
2023-05-25T14:32:19.207Z,12.73
2023-05-25T14:34:46.026Z,12.88
2023-05-25T14:37:12.967Z,13.65
2023-05-25T14:39:44.542Z,13.77
2023-05-25T14:42:11.425Z,11.75
2023-05-25T14:44:38.245Z,18.30
2023-05-25T14:47:05.569Z,13.65
2023-05-25T14:49:32.453Z,11.60
2023-05-25T14:51:59.352Z,14.50
2023-05-25T14:54:26.286Z,14.38
2023-05-25T14:56:55.361Z,12.70
2023-05-25T14:59:24.485Z,11.68
2023-05-25T15:01:53.522Z,11.75
2023-05-25T15:04:22.760Z,15.15
2023-05-25T15:06:49.769Z,12.48
2023-05-25T15:09:19.233Z,14.68
2023-05-25T15:11:48.495Z,16.20
2023-05-25T15:14:16.458Z,11.88
2023-05-25T15:16:43.545Z,14.82
2023-05-25T15:19:13.222Z,15.90
2023-05-25T15:21:42.037Z,12.35
2023-05-25T15:24:09.022Z,10.30
2023-05-25T15:26:35.805Z,15.27
2023-05-25T15:29:02.583Z,10.73
2023-05-25T15:31:31.901Z,12.55
2023-05-25T15:34:00.721Z,10.52
2023-05-25T15:36:27.566Z,14.23
2023-05-25T15:38:54.349Z,13.82
2023-05-25T15:41:21.904Z,12.15
2023-05-25T15:43:52.383Z,11.45
2023-05-25T15:46:21.484Z,12.25
2023-05-25T15:48:48.425Z,11.18
2023-05-25T15:51:15.358Z,10.73
2023-05-25T15:53:42.184Z,11.52
2023-05-25T15:56:09.002Z,13.02
2023-05-25T15:58:35.910Z,12.77
2023-05-25T16:01:05.138Z,12.60
2023-05-25T16:03:32.093Z,14.35
2023-05-25T16:06:03.653Z,14.88
2023-05-25T16:08:32.902Z,14.68
2023-05-25T16:10:59.672Z,14.60
2023-05-25T16:13:26.477Z,18.40
2023-05-25T16:15:53.370Z,14.88
2023-05-25T16:18:22.467Z,12.88
2023-05-25T16:20:55.830Z,14.50
2023-05-25T16:23:23.549Z,12.07
2023-05-25T16:25:52.693Z,16.75
2023-05-25T16:28:19.572Z,13.98
2023-05-25T16:30:46.375Z,11.85
2023-05-25T16:33:13.217Z,14.00
2023-05-25T16:35:42.466Z,14.23
2023-05-25T16:38:11.647Z,16.98
2023-05-25T16:40:40.758Z,12.98
2023-05-25T16:43:07.554Z,12.10
2023-05-25T16:45:34.420Z,12.40
2023-05-25T16:48:01.401Z,12.43
2023-05-25T16:50:28.262Z,12.77
2023-05-25T16:52:55.184Z,13.95
2023-05-25T16:55:22.055Z,16.77
2023-05-25T16:57:48.907Z,17.48
2023-05-25T17:00:16.140Z,22.90
2023-05-25T17:02:45.553Z,11.88
2023-05-25T17:05:12.520Z,17.55
2023-05-25T17:07:40.310Z,14.57
2023-05-25T17:10:08.270Z,14.63
2023-05-25T17:12:37.534Z,16.27
2023-05-25T17:15:05.057Z,16.15
2023-05-25T17:17:32.009Z,14.57
2023-05-25T17:20:01.387Z,13.13
2023-05-25T17:22:28.162Z,13.27
2023-05-25T17:24:57.254Z,15.35
2023-05-25T17:27:24.026Z,21.95
2023-05-25T17:29:50.831Z,13.50
2023-05-25T17:32:22.434Z,12.07
2023-05-25T17:34:51.773Z,15.15
2023-05-25T17:37:19.222Z,16.67
2023-05-25T17:39:47.756Z,12.68
2023-05-25T17:42:14.607Z,15.30
2023-05-25T17:44:42.649Z,15.60
2023-05-25T17:47:11.760Z,14.32
2023-05-25T17:49:38.595Z,14.57
2023-05-25T17:52:08.888Z,12.05
2023-05-25T17:54:35.755Z,14.32
2023-05-25T17:57:02.656Z,14.65
2023-05-25T17:59:29.521Z,19.85
2023-05-25T18:01:56.456Z,13.00
2023-05-25T18:04:23.369Z,16.23
2023-05-25T18:06:52.685Z,18.77
2023-05-25T18:09:19.827Z,15.35
2023-05-25T18:11:48.988Z,12.95
2023-05-25T18:14:15.903Z,19.05
2023-05-25T18:16:44.714Z,27.75
2023-05-25T18:19:11.769Z,22.25
2023-05-25T18:21:39.545Z,15.80
2023-05-25T18:24:14.128Z,58.78
2023-05-25T18:26:43.984Z,17.10
2023-05-25T18:29:10.879Z,17.38
2023-05-25T18:31:45.844Z,16.80
2023-05-25T18:34:13.187Z,17.95
2023-05-25T18:36:40.029Z,13.40
2023-05-25T18:39:06.863Z,14.65
2023-05-25T18:41:33.732Z,14.65
2023-05-25T18:44:00.537Z,17.52
2023-05-25T18:46:28.581Z,15.60
2023-05-25T18:48:55.872Z,13.60
2023-05-25T18:51:25.659Z,16.13
2023-05-25T18:53:55.100Z,16.55
2023-05-25T18:56:22.867Z,14.75
2023-05-25T18:58:50.874Z,17.02
2023-05-25T19:01:17.798Z,15.68
2023-05-25T19:03:44.782Z,16.90
2023-05-25T19:06:11.829Z,12.85
2023-05-25T19:08:38.618Z,20.92
2023-05-25T19:11:05.836Z,16.35
2023-05-25T19:13:32.630Z,11.63
2023-05-25T19:16:01.490Z,17.25
2023-05-25T19:18:28.413Z,18.30
2023-05-25T19:20:55.492Z,15.27
2023-05-25T19:23:22.296Z,21.10
2023-05-25T19:25:51.510Z,13.63
2023-05-25T19:28:20.637Z,22.17
2023-05-25T19:30:52.248Z,19.08
2023-05-25T19:33:21.437Z,14.63
2023-05-25T19:35:48.713Z,13.40
2023-05-25T19:38:15.973Z,16.33
2023-05-25T19:40:42.813Z,17.10
2023-05-25T19:43:09.994Z,13.55
2023-05-25T19:45:36.910Z,15.95
2023-05-25T19:48:04.110Z,20.23
2023-05-25T19:50:31.003Z,16.65
2023-05-25T19:52:58.686Z,17.95
2023-05-25T19:55:25.752Z,22.75
2023-05-25T19:57:55.371Z,18.50
2023-05-25T20:00:26.688Z,16.35
2023-05-25T20:02:53.828Z,17.42
2023-05-25T20:05:20.737Z,20.30
2023-05-25T20:07:47.662Z,16.05
2023-05-25T20:10:16.943Z,17.63
2023-05-25T20:12:43.771Z,17.08
2023-05-25T20:15:13.023Z,13.48
2023-05-25T20:17:39.857Z,20.75
2023-05-25T20:20:07.235Z,13.70
2023-05-25T20:22:36.416Z,13.10
2023-05-25T20:25:03.294Z,14.45
2023-05-25T20:27:32.455Z,14.98
2023-05-25T20:29:59.238Z,21.55
2023-05-25T20:32:26.057Z,14.18
2023-05-25T20:34:52.897Z,17.17
2023-05-25T20:37:21.965Z,15.73
2023-05-25T20:39:48.775Z,16.30
2023-05-25T20:42:15.590Z,17.88
2023-05-25T20:44:42.430Z,15.65
2023-05-25T20:47:11.387Z,16.52
2023-05-25T20:49:38.236Z,13.32
2023-05-25T20:52:05.305Z,18.67
2023-05-25T20:54:34.573Z,15.43
2023-05-25T20:57:04.058Z,16.95
2023-05-25T20:59:31.847Z,17.10
2023-05-25T21:01:58.778Z,17.52
2023-05-25T21:04:25.881Z,17.10
2023-05-25T21:06:52.689Z,18.27
2023-05-25T21:09:19.592Z,14.60
2023-05-25T21:11:46.405Z,13.35
2023-05-25T21:14:16.068Z,14.70
2023-05-25T21:16:43.676Z,21.58
2023-05-25T21:19:11.554Z,19.50
2023-05-25T21:21:38.370Z,16.80
2023-05-25T21:24:05.616Z,14.50
2023-05-25T21:26:37.069Z,13.80
2023-05-25T21:29:07.718Z,16.00
2023-05-25T21:31:34.759Z,14.65
2023-05-25T21:34:04.433Z,14.32
2023-05-25T21:36:32.402Z,19.35
2023-05-25T21:38:59.190Z,16.38
2023-05-25T21:41:27.318Z,12.75
2023-05-25T21:43:54.104Z,16.08
2023-05-25T21:46:20.886Z,22.02
2023-05-25T21:48:47.710Z,12.68
2023-05-25T21:51:14.500Z,9.02
2023-05-25T21:53:41.379Z,13.45
2023-05-25T21:56:08.223Z,12.05
2023-05-25T21:58:35.060Z,9.25
2023-05-25T22:01:01.947Z,10.02
2023-05-25T22:03:28.856Z,9.70
2023-05-25T22:05:55.745Z,9.40
2023-05-25T22:08:22.573Z,9.50
2023-05-25T22:10:51.881Z,8.82
2023-05-25T22:13:18.666Z,10.80
2023-05-25T22:15:48.317Z,14.43
2023-05-25T22:18:15.122Z,8.85
2023-05-25T22:20:42.352Z,9.45
2023-05-25T22:23:11.406Z,9.55
2023-05-25T22:25:38.192Z,11.30
2023-05-25T22:28:05.072Z,12.52
2023-05-25T22:30:31.984Z,11.43
2023-05-25T22:32:58.849Z,8.95
2023-05-25T22:35:25.702Z,14.82
2023-05-25T22:37:52.694Z,12.55
2023-05-25T22:40:19.471Z,13.57
2023-05-25T22:42:50.225Z,9.90
2023-05-25T22:45:20.548Z,10.00
2023-05-25T22:47:47.856Z,17.05
2023-05-25T22:50:14.779Z,10.68
2023-05-25T22:52:43.885Z,11.33
2023-05-25T22:55:11.049Z,12.27
2023-05-25T22:57:38.112Z,10.23
2023-05-25T23:00:05.427Z,9.32
2023-05-25T23:02:32.379Z,11.30
2023-05-25T23:04:59.294Z,9.60
2023-05-25T23:07:26.301Z,10.05
2023-05-25T23:09:53.136Z,12.27
2023-05-25T23:12:20.089Z,10.43
2023-05-25T23:14:46.978Z,13.02
2023-05-25T23:17:13.923Z,12.43
2023-05-25T23:19:44.823Z,11.60
2023-05-25T23:22:11.697Z,12.07
2023-05-25T23:24:38.750Z,11.35
2023-05-25T23:27:06.877Z,9.53
2023-05-25T23:29:33.704Z,13.87
2023-05-25T23:32:03.016Z,16.90
2023-05-25T23:34:30.097Z,19.77
2023-05-25T23:36:58.239Z,11.17
2023-05-25T23:39:25.303Z,14.57
2023-05-25T23:41:52.283Z,9.38
2023-05-25T23:44:23.566Z,9.47
2023-05-25T23:46:53.155Z,7.63
2023-05-25T23:49:20.141Z,9.00
2023-05-25T23:51:46.977Z,8.13
2023-05-25T23:54:16.055Z,8.43
2023-05-25T23:56:42.904Z,8.50
2023-05-25T23:59:09.786Z,7.93
